sensor_id;sensor_type;location;lat;lon;timestamp;P1;durP1;ratioP1;P2;durP2;ratioP2
35606;SDS011;21729;58.392;15.656;2023-03-14T00:00:15;1.30;;;0.50;;
35606;SDS011;21729;58.392;15.656;2023-03-14T00:02:43;2.23;;;0.50;;
35606;SDS011;21729;58.392;15.656;2023-03-14T00:05:10;1.30;;;0.40;;
35606;SDS011;21729;58.392;15.656;2023-03-14T00:07:38;0.65;;;0.40;;
35606;SDS011;21729;58.392;15.656;2023-03-14T00:10:07;0.98;;;0.32;;
35606;SDS011;21729;58.392;15.656;2023-03-14T00:12:36;1.17;;;0.50;;
35606;SDS011;21729;58.392;15.656;2023-03-14T00:15:05;1.70;;;0.50;;
35606;SDS011;21729;58.392;15.656;2023-03-14T00:17:33;1.30;;;0.38;;
35606;SDS011;21729;58.392;15.656;2023-03-14T00:20:02;0.70;;;0.30;;
35606;SDS011;21729;58.392;15.656;2023-03-14T00:22:33;1.75;;;0.40;;
35606;SDS011;21729;58.392;15.656;2023-03-14T00:25:01;0.80;;;0.37;;
35606;SDS011;21729;58.392;15.656;2023-03-14T00:27:28;1.52;;;0.55;;
35606;SDS011;21729;58.392;15.656;2023-03-14T00:29:55;1.50;;;0.30;;
35606;SDS011;21729;58.392;15.656;2023-03-14T00:32:24;1.25;;;0.40;;
35606;SDS011;21729;58.392;15.656;2023-03-14T00:34:52;0.65;;;0.30;;
35606;SDS011;21729;58.392;15.656;2023-03-14T00:37:19;2.88;;;0.57;;
35606;SDS011;21729;58.392;15.656;2023-03-14T00:39:46;0.50;;;0.38;;
35606;SDS011;21729;58.392;15.656;2023-03-14T00:42:14;1.35;;;0.40;;
35606;SDS011;21729;58.392;15.656;2023-03-14T00:44:41;1.38;;;0.35;;
35606;SDS011;21729;58.392;15.656;2023-03-14T00:47:08;1.33;;;0.30;;
35606;SDS011;21729;58.392;15.656;2023-03-14T00:49:38;1.58;;;0.40;;
35606;SDS011;21729;58.392;15.656;2023-03-14T00:52:08;0.98;;;0.20;;
35606;SDS011;21729;58.392;15.656;2023-03-14T00:54:35;0.80;;;0.40;;
35606;SDS011;21729;58.392;15.656;2023-03-14T00:57:03;2.47;;;0.45;;
35606;SDS011;21729;58.392;15.656;2023-03-14T00:59:30;2.00;;;0.40;;
35606;SDS011;21729;58.392;15.656;2023-03-14T01:01:57;1.42;;;0.30;;
35606;SDS011;21729;58.392;15.656;2023-03-14T01:04:24;1.00;;;0.40;;
35606;SDS011;21729;58.392;15.656;2023-03-14T01:06:53;1.63;;;0.40;;
35606;SDS011;21729;58.392;15.656;2023-03-14T01:09:20;1.30;;;0.45;;
35606;SDS011;21729;58.392;15.656;2023-03-14T01:11:47;1.13;;;0.38;;
35606;SDS011;21729;58.392;15.656;2023-03-14T01:14:15;1.50;;;0.40;;
35606;SDS011;21729;58.392;15.656;2023-03-14T01:16:42;1.03;;;0.43;;
35606;SDS011;21729;58.392;15.656;2023-03-14T01:19:09;0.68;;;0.40;;
35606;SDS011;21729;58.392;15.656;2023-03-14T01:21:36;1.27;;;0.40;;
35606;SDS011;21729;58.392;15.656;2023-03-14T01:24:05;1.40;;;0.53;;
35606;SDS011;21729;58.392;15.656;2023-03-14T01:26:33;1.75;;;0.50;;
35606;SDS011;21729;58.392;15.656;2023-03-14T01:29:01;1.23;;;0.40;;
35606;SDS011;21729;58.392;15.656;2023-03-14T01:31:29;2.17;;;0.47;;
35606;SDS011;21729;58.392;15.656;2023-03-14T01:33:56;4.03;;;0.60;;
35606;SDS011;21729;58.392;15.656;2023-03-14T01:36:23;0.60;;;0.52;;
35606;SDS011;21729;58.392;15.656;2023-03-14T01:38:51;2.55;;;0.50;;
35606;SDS011;21729;58.392;15.656;2023-03-14T01:41:20;2.80;;;0.50;;
35606;SDS011;21729;58.392;15.656;2023-03-14T01:43:50;1.45;;;0.65;;
35606;SDS011;21729;58.392;15.656;2023-03-14T01:46:18;1.05;;;0.50;;
35606;SDS011;21729;58.392;15.656;2023-03-14T01:49:01;2.05;;;0.50;;
35606;SDS011;21729;58.392;15.656;2023-03-14T01:51:33;2.65;;;0.70;;
35606;SDS011;21729;58.392;15.656;2023-03-14T01:54:06;1.52;;;0.50;;
35606;SDS011;21729;58.392;15.656;2023-03-14T01:56:40;2.22;;;0.50;;
35606;SDS011;21729;58.392;15.656;2023-03-14T01:59:10;2.72;;;0.60;;
35606;SDS011;21729;58.392;15.656;2023-03-14T02:01:38;1.80;;;0.65;;
35606;SDS011;21729;58.392;15.656;2023-03-14T02:04:09;1.37;;;0.43;;
35606;SDS011;21729;58.392;15.656;2023-03-14T02:06:42;0.73;;;0.40;;
35606;SDS011;21729;58.392;15.656;2023-03-14T02:09:15;0.68;;;0.30;;
35606;SDS011;21729;58.392;15.656;2023-03-14T02:11:44;1.42;;;0.50;;
35606;SDS011;21729;58.392;15.656;2023-03-14T02:14:14;0.98;;;0.40;;
35606;SDS011;21729;58.392;15.656;2023-03-14T02:16:48;1.08;;;0.43;;
35606;SDS011;21729;58.392;15.656;2023-03-14T02:19:15;2.10;;;0.45;;
35606;SDS011;21729;58.392;15.656;2023-03-14T02:21:49;1.50;;;0.40;;
35606;SDS011;21729;58.392;15.656;2023-03-14T02:24:24;0.75;;;0.30;;
35606;SDS011;21729;58.392;15.656;2023-03-14T02:27:05;1.20;;;0.38;;
35606;SDS011;21729;58.392;15.656;2023-03-14T02:29:38;0.57;;;0.30;;
35606;SDS011;21729;58.392;15.656;2023-03-14T02:32:09;0.60;;;0.30;;
35606;SDS011;21729;58.392;15.656;2023-03-14T02:34:37;0.95;;;0.30;;
35606;SDS011;21729;58.392;15.656;2023-03-14T02:37:07;0.57;;;0.20;;
35606;SDS011;21729;58.392;15.656;2023-03-14T02:39:35;0.22;;;0.20;;
35606;SDS011;21729;58.392;15.656;2023-03-14T02:42:16;0.90;;;0.20;;
35606;SDS011;21729;58.392;15.656;2023-03-14T02:44:51;1.05;;;0.28;;
35606;SDS011;21729;58.392;15.656;2023-03-14T02:47:21;0.40;;;0.20;;
35606;SDS011;21729;58.392;15.656;2023-03-14T02:49:53;0.90;;;0.20;;
35606;SDS011;21729;58.392;15.656;2023-03-14T02:52:29;0.20;;;0.05;;
35606;SDS011;21729;58.392;15.656;2023-03-14T02:54:56;0.90;;;0.30;;
35606;SDS011;21729;58.392;15.656;2023-03-14T02:57:25;0.10;;;0.10;;
35606;SDS011;21729;58.392;15.656;2023-03-14T02:59:52;0.93;;;0.28;;
35606;SDS011;21729;58.392;15.656;2023-03-14T03:02:19;0.70;;;0.10;;
35606;SDS011;21729;58.392;15.656;2023-03-14T03:04:46;0.38;;;0.20;;
35606;SDS011;21729;58.392;15.656;2023-03-14T03:07:13;0.70;;;0.25;;
35606;SDS011;21729;58.392;15.656;2023-03-14T03:09:40;0.40;;;0.30;;
35606;SDS011;21729;58.392;15.656;2023-03-14T03:12:07;0.50;;;0.10;;
35606;SDS011;21729;58.392;15.656;2023-03-14T03:14:35;0.17;;;0.10;;
35606;SDS011;21729;58.392;15.656;2023-03-14T03:17:03;0.20;;;0.20;;
35606;SDS011;21729;58.392;15.656;2023-03-14T03:19:30;0.10;;;0.10;;
35606;SDS011;21729;58.392;15.656;2023-03-14T03:21:58;0.20;;;0.10;;
35606;SDS011;21729;58.392;15.656;2023-03-14T03:24:25;0.22;;;0.10;;
35606;SDS011;21729;58.392;15.656;2023-03-14T03:26:53;0.20;;;0.10;;
35606;SDS011;21729;58.392;15.656;2023-03-14T03:29:20;1.10;;;0.10;;
35606;SDS011;21729;58.392;15.656;2023-03-14T03:31:49;0.45;;;0.10;;
35606;SDS011;21729;58.392;15.656;2023-03-14T03:34:16;0.20;;;0.10;;
35606;SDS011;21729;58.392;15.656;2023-03-14T03:36:43;0.63;;;0.10;;
35606;SDS011;21729;58.392;15.656;2023-03-14T03:39:13;0.15;;;0.10;;
35606;SDS011;21729;58.392;15.656;2023-03-14T03:41:40;0.13;;;0.13;;
35606;SDS011;21729;58.392;15.656;2023-03-14T03:44:07;0.40;;;0.15;;
35606;SDS011;21729;58.392;15.656;2023-03-14T03:46:34;0.10;;;0.10;;
35606;SDS011;21729;58.392;15.656;2023-03-14T03:49:03;0.10;;;0.00;;
35606;SDS011;21729;58.392;15.656;2023-03-14T03:51:30;0.52;;;0.20;;
35606;SDS011;21729;58.392;15.656;2023-03-14T03:53:58;0.52;;;0.17;;
35606;SDS011;21729;58.392;15.656;2023-03-14T03:56:25;0.40;;;0.10;;
35606;SDS011;21729;58.392;15.656;2023-03-14T03:58:52;0.10;;;0.10;;
35606;SDS011;21729;58.392;15.656;2023-03-14T04:01:19;0.50;;;0.10;;
35606;SDS011;21729;58.392;15.656;2023-03-14T04:03:46;0.20;;;0.20;;
35606;SDS011;21729;58.392;15.656;2023-03-14T04:06:14;0.98;;;0.10;;
35606;SDS011;21729;58.392;15.656;2023-03-14T04:08:41;0.93;;;0.20;;
35606;SDS011;21729;58.392;15.656;2023-03-14T04:11:09;0.80;;;0.20;;
35606;SDS011;21729;58.392;15.656;2023-03-14T04:13:36;0.80;;;0.30;;
35606;SDS011;21729;58.392;15.656;2023-03-14T04:16:08;0.15;;;0.10;;
35606;SDS011;21729;58.392;15.656;2023-03-14T04:18:40;1.02;;;0.20;;
35606;SDS011;21729;58.392;15.656;2023-03-14T04:21:07;1.30;;;0.13;;
35606;SDS011;21729;58.392;15.656;2023-03-14T04:23:36;0.28;;;0.10;;
35606;SDS011;21729;58.392;15.656;2023-03-14T04:26:03;0.43;;;0.17;;
35606;SDS011;21729;58.392;15.656;2023-03-14T04:28:30;0.10;;;0.10;;
35606;SDS011;21729;58.392;15.656;2023-03-14T04:30:58;0.82;;;0.20;;
35606;SDS011;21729;58.392;15.656;2023-03-14T04:33:25;0.50;;;0.10;;
35606;SDS011;21729;58.392;15.656;2023-03-14T04:35:53;0.20;;;0.20;;
35606;SDS011;21729;58.392;15.656;2023-03-14T04:38:20;0.10;;;0.10;;
35606;SDS011;21729;58.392;15.656;2023-03-14T04:40:49;0.90;;;0.20;;
35606;SDS011;21729;58.392;15.656;2023-03-14T04:43:16;0.38;;;0.10;;
35606;SDS011;21729;58.392;15.656;2023-03-14T04:45:43;0.10;;;0.10;;
35606;SDS011;21729;58.392;15.656;2023-03-14T04:48:11;1.13;;;0.20;;
35606;SDS011;21729;58.392;15.656;2023-03-14T04:50:38;0.60;;;0.13;;
35606;SDS011;21729;58.392;15.656;2023-03-14T04:53:06;0.25;;;0.20;;
35606;SDS011;21729;58.392;15.656;2023-03-14T04:55:33;0.45;;;0.05;;
35606;SDS011;21729;58.392;15.656;2023-03-14T04:58:02;0.20;;;0.10;;
35606;SDS011;21729;58.392;15.656;2023-03-14T05:00:29;0.60;;;0.15;;
35606;SDS011;21729;58.392;15.656;2023-03-14T05:02:57;0.60;;;0.10;;
35606;SDS011;21729;58.392;15.656;2023-03-14T05:05:24;0.20;;;0.10;;
35606;SDS011;21729;58.392;15.656;2023-03-14T05:07:52;0.10;;;0.10;;
35606;SDS011;21729;58.392;15.656;2023-03-14T05:10:19;0.43;;;0.20;;
35606;SDS011;21729;58.392;15.656;2023-03-14T05:12:46;1.13;;;0.10;;
35606;SDS011;21729;58.392;15.656;2023-03-14T05:15:14;0.40;;;0.20;;
35606;SDS011;21729;58.392;15.656;2023-03-14T05:17:41;0.20;;;0.20;;
35606;SDS011;21729;58.392;15.656;2023-03-14T05:20:09;1.30;;;0.25;;
35606;SDS011;21729;58.392;15.656;2023-03-14T05:22:38;0.38;;;0.10;;
35606;SDS011;21729;58.392;15.656;2023-03-14T05:25:05;0.20;;;0.15;;
35606;SDS011;21729;58.392;15.656;2023-03-14T05:27:33;0.22;;;0.10;;
35606;SDS011;21729;58.392;15.656;2023-03-14T05:30:01;0.30;;;0.20;;
35606;SDS011;21729;58.392;15.656;2023-03-14T05:32:29;0.10;;;0.10;;
35606;SDS011;21729;58.392;15.656;2023-03-14T05:34:56;0.20;;;0.20;;
35606;SDS011;21729;58.392;15.656;2023-03-14T05:37:24;0.50;;;0.17;;
35606;SDS011;21729;58.392;15.656;2023-03-14T05:39:51;0.98;;;0.22;;
35606;SDS011;21729;58.392;15.656;2023-03-14T05:42:19;0.10;;;0.10;;
35606;SDS011;21729;58.392;15.656;2023-03-14T05:44:46;0.65;;;0.10;;
35606;SDS011;21729;58.392;15.656;2023-03-14T05:47:13;0.20;;;0.20;;
35606;SDS011;21729;58.392;15.656;2023-03-14T05:49:42;0.30;;;0.10;;
35606;SDS011;21729;58.392;15.656;2023-03-14T05:52:09;0.10;;;0.10;;
35606;SDS011;21729;58.392;15.656;2023-03-14T05:54:36;0.70;;;0.10;;
35606;SDS011;21729;58.392;15.656;2023-03-14T05:57:03;0.20;;;0.10;;
35606;SDS011;21729;58.392;15.656;2023-03-14T05:59:30;0.20;;;0.20;;
35606;SDS011;21729;58.392;15.656;2023-03-14T06:01:57;0.35;;;0.20;;
35606;SDS011;21729;58.392;15.656;2023-03-14T06:04:25;0.22;;;0.20;;
35606;SDS011;21729;58.392;15.656;2023-03-14T06:06:53;0.28;;;0.22;;
35606;SDS011;21729;58.392;15.656;2023-03-14T06:09:20;0.30;;;0.30;;
35606;SDS011;21729;58.392;15.656;2023-03-14T06:11:48;1.20;;;0.20;;
35606;SDS011;21729;58.392;15.656;2023-03-14T06:14:15;0.35;;;0.30;;
35606;SDS011;21729;58.392;15.656;2023-03-14T06:16:43;0.47;;;0.30;;
35606;SDS011;21729;58.392;15.656;2023-03-14T06:19:10;0.40;;;0.40;;
35606;SDS011;21729;58.392;15.656;2023-03-14T06:21:38;0.30;;;0.30;;
35606;SDS011;21729;58.392;15.656;2023-03-14T06:24:06;0.80;;;0.40;;
35606;SDS011;21729;58.392;15.656;2023-03-14T06:26:33;0.40;;;0.40;;
35606;SDS011;21729;58.392;15.656;2023-03-14T06:29:00;2.40;;;0.77;;
35606;SDS011;21729;58.392;15.656;2023-03-14T06:31:28;2.55;;;0.80;;
35606;SDS011;21729;58.392;15.656;2023-03-14T06:33:56;3.20;;;0.90;;
35606;SDS011;21729;58.392;15.656;2023-03-14T06:36:23;4.22;;;1.25;;
35606;SDS011;21729;58.392;15.656;2023-03-14T06:38:50;3.38;;;1.25;;
35606;SDS011;21729;58.392;15.656;2023-03-14T06:41:19;2.80;;;1.03;;
35606;SDS011;21729;58.392;15.656;2023-03-14T06:43:48;3.20;;;1.25;;
35606;SDS011;21729;58.392;15.656;2023-03-14T06:46:16;2.85;;;1.20;;
35606;SDS011;21729;58.392;15.656;2023-03-14T06:48:43;4.40;;;1.40;;
35606;SDS011;21729;58.392;15.656;2023-03-14T06:51:10;3.20;;;1.30;;
35606;SDS011;21729;58.392;15.656;2023-03-14T06:53:37;8.43;;;1.70;;
35606;SDS011;21729;58.392;15.656;2023-03-14T06:56:05;4.10;;;1.42;;
35606;SDS011;21729;58.392;15.656;2023-03-14T06:58:34;6.57;;;1.80;;
35606;SDS011;21729;58.392;15.656;2023-03-14T07:01:02;6.43;;;1.87;;
35606;SDS011;21729;58.392;15.656;2023-03-14T07:03:29;7.20;;;1.90;;
35606;SDS011;21729;58.392;15.656;2023-03-14T07:05:58;6.82;;;1.70;;
35606;SDS011;21729;58.392;15.656;2023-03-14T07:08:25;6.90;;;1.67;;
35606;SDS011;21729;58.392;15.656;2023-03-14T07:10:52;7.53;;;2.08;;
35606;SDS011;21729;58.392;15.656;2023-03-14T07:13:22;5.57;;;1.60;;
35606;SDS011;21729;58.392;15.656;2023-03-14T07:15:51;7.65;;;1.80;;
35606;SDS011;21729;58.392;15.656;2023-03-14T07:18:18;6.35;;;1.90;;
35606;SDS011;21729;58.392;15.656;2023-03-14T07:20:45;5.80;;;1.92;;
35606;SDS011;21729;58.392;15.656;2023-03-14T07:23:12;4.95;;;1.70;;
35606;SDS011;21729;58.392;15.656;2023-03-14T07:25:39;6.20;;;2.05;;
35606;SDS011;21729;58.392;15.656;2023-03-14T07:28:08;5.10;;;1.90;;
35606;SDS011;21729;58.392;15.656;2023-03-14T07:30:35;6.50;;;1.77;;
35606;SDS011;21729;58.392;15.656;2023-03-14T07:33:03;5.97;;;1.73;;
35606;SDS011;21729;58.392;15.656;2023-03-14T07:35:31;6.83;;;1.80;;
35606;SDS011;21729;58.392;15.656;2023-03-14T07:37:58;8.50;;;1.90;;
35606;SDS011;21729;58.392;15.656;2023-03-14T07:40:25;8.20;;;1.80;;
35606;SDS011;21729;58.392;15.656;2023-03-14T07:42:52;5.90;;;1.92;;
35606;SDS011;21729;58.392;15.656;2023-03-14T07:45:20;4.87;;;1.87;;
35606;SDS011;21729;58.392;15.656;2023-03-14T07:47:47;7.03;;;1.83;;
35606;SDS011;21729;58.392;15.656;2023-03-14T07:50:16;7.83;;;1.80;;
35606;SDS011;21729;58.392;15.656;2023-03-14T07:52:44;8.45;;;2.08;;
35606;SDS011;21729;58.392;15.656;2023-03-14T07:55:11;8.17;;;2.10;;
35606;SDS011;21729;58.392;15.656;2023-03-14T07:57:38;6.87;;;2.07;;
35606;SDS011;21729;58.392;15.656;2023-03-14T08:00:06;7.57;;;1.83;;
35606;SDS011;21729;58.392;15.656;2023-03-14T08:02:35;5.15;;;1.67;;
35606;SDS011;21729;58.392;15.656;2023-03-14T08:05:02;6.75;;;1.90;;
35606;SDS011;21729;58.392;15.656;2023-03-14T08:07:31;4.87;;;1.93;;
35606;SDS011;21729;58.392;15.656;2023-03-14T08:09:58;6.45;;;1.98;;
35606;SDS011;21729;58.392;15.656;2023-03-14T08:12:25;6.32;;;2.03;;
35606;SDS011;21729;58.392;15.656;2023-03-14T08:14:52;8.25;;;1.77;;
35606;SDS011;21729;58.392;15.656;2023-03-14T08:17:19;5.57;;;1.80;;
35606;SDS011;21729;58.392;15.656;2023-03-14T08:19:47;6.35;;;1.90;;
35606;SDS011;21729;58.392;15.656;2023-03-14T08:22:14;5.78;;;1.75;;
35606;SDS011;21729;58.392;15.656;2023-03-14T08:24:42;6.45;;;1.90;;
35606;SDS011;21729;58.392;15.656;2023-03-14T08:27:09;6.07;;;1.90;;
35606;SDS011;21729;58.392;15.656;2023-03-14T08:29:36;6.80;;;1.88;;
35606;SDS011;21729;58.392;15.656;2023-03-14T08:32:05;5.68;;;1.60;;
35606;SDS011;21729;58.392;15.656;2023-03-14T08:34:32;4.60;;;1.70;;
35606;SDS011;21729;58.392;15.656;2023-03-14T08:37:00;4.80;;;1.67;;
35606;SDS011;21729;58.392;15.656;2023-03-14T08:39:27;4.20;;;1.70;;
35606;SDS011;21729;58.392;15.656;2023-03-14T08:42:00;4.43;;;1.65;;
35606;SDS011;21729;58.392;15.656;2023-03-14T08:44:28;5.77;;;1.80;;
35606;SDS011;21729;58.392;15.656;2023-03-14T08:46:55;5.07;;;1.38;;
35606;SDS011;21729;58.392;15.656;2023-03-14T08:49:23;3.47;;;1.33;;
35606;SDS011;21729;58.392;15.656;2023-03-14T08:51:50;3.75;;;1.42;;
35606;SDS011;21729;58.392;15.656;2023-03-14T08:54:17;2.58;;;1.40;;
35606;SDS011;21729;58.392;15.656;2023-03-14T08:56:44;3.03;;;1.25;;
35606;SDS011;21729;58.392;15.656;2023-03-14T08:59:13;3.88;;;1.23;;
35606;SDS011;21729;58.392;15.656;2023-03-14T09:01:40;4.07;;;1.08;;
35606;SDS011;21729;58.392;15.656;2023-03-14T09:04:07;3.22;;;1.00;;
35606;SDS011;21729;58.392;15.656;2023-03-14T09:06:34;4.88;;;1.10;;
35606;SDS011;21729;58.392;15.656;2023-03-14T09:09:02;4.53;;;1.20;;
35606;SDS011;21729;58.392;15.656;2023-03-14T09:11:29;2.37;;;1.00;;
35606;SDS011;21729;58.392;15.656;2023-03-14T09:13:56;3.72;;;1.00;;
35606;SDS011;21729;58.392;15.656;2023-03-14T09:16:25;3.15;;;0.95;;
35606;SDS011;21729;58.392;15.656;2023-03-14T09:18:52;3.33;;;1.00;;
35606;SDS011;21729;58.392;15.656;2023-03-14T09:21:19;2.40;;;0.80;;
35606;SDS011;21729;58.392;15.656;2023-03-14T09:23:46;2.90;;;1.00;;
35606;SDS011;21729;58.392;15.656;2023-03-14T09:26:14;2.75;;;0.80;;
35606;SDS011;21729;58.392;15.656;2023-03-14T09:28:41;1.57;;;0.73;;
35606;SDS011;21729;58.392;15.656;2023-03-14T09:31:08;2.13;;;0.80;;
35606;SDS011;21729;58.392;15.656;2023-03-14T09:33:38;3.15;;;0.80;;
35606;SDS011;21729;58.392;15.656;2023-03-14T09:36:06;1.10;;;0.80;;
35606;SDS011;21729;58.392;15.656;2023-03-14T09:38:33;1.75;;;0.50;;
35606;SDS011;21729;58.392;15.656;2023-03-14T09:41:01;1.33;;;0.50;;
35606;SDS011;21729;58.392;15.656;2023-03-14T09:43:38;2.13;;;0.60;;
35606;SDS011;21729;58.392;15.656;2023-03-14T09:46:07;2.05;;;0.60;;
35606;SDS011;21729;58.392;15.656;2023-03-14T09:48:38;0.95;;;0.40;;
35606;SDS011;21729;58.392;15.656;2023-03-14T09:51:07;2.50;;;0.60;;
35606;SDS011;21729;58.392;15.656;2023-03-14T09:53:40;2.03;;;0.50;;
35606;SDS011;21729;58.392;15.656;2023-03-14T09:56:11;1.02;;;0.32;;
35606;SDS011;21729;58.392;15.656;2023-03-14T09:58:41;0.75;;;0.28;;
35606;SDS011;21729;58.392;15.656;2023-03-14T10:01:11;1.20;;;0.30;;
35606;SDS011;21729;58.392;15.656;2023-03-14T10:03:43;1.10;;;0.30;;
35606;SDS011;21729;58.392;15.656;2023-03-14T10:06:12;0.80;;;0.32;;
35606;SDS011;21729;58.392;15.656;2023-03-14T10:08:40;0.30;;;0.28;;
35606;SDS011;21729;58.392;15.656;2023-03-14T10:11:10;0.20;;;0.20;;
35606;SDS011;21729;58.392;15.656;2023-03-14T10:13:52;0.68;;;0.30;;
35606;SDS011;21729;58.392;15.656;2023-03-14T10:16:30;1.20;;;0.40;;
35606;SDS011;21729;58.392;15.656;2023-03-14T10:19:04;0.88;;;0.30;;
35606;SDS011;21729;58.392;15.656;2023-03-14T10:21:38;0.38;;;0.20;;
35606;SDS011;21729;58.392;15.656;2023-03-14T10:24:09;0.50;;;0.40;;
35606;SDS011;21729;58.392;15.656;2023-03-14T10:26:44;0.30;;;0.30;;
35606;SDS011;21729;58.392;15.656;2023-03-14T10:29:15;0.22;;;0.22;;
35606;SDS011;21729;58.392;15.656;2023-03-14T10:31:46;0.35;;;0.28;;
35606;SDS011;21729;58.392;15.656;2023-03-14T10:34:20;0.68;;;0.30;;
35606;SDS011;21729;58.392;15.656;2023-03-14T10:36:53;0.38;;;0.38;;
35606;SDS011;21729;58.392;15.656;2023-03-14T10:39:26;0.20;;;0.20;;
35606;SDS011;21729;58.392;15.656;2023-03-14T10:42:03;0.93;;;0.30;;
35606;SDS011;21729;58.392;15.656;2023-03-14T10:44:33;1.90;;;0.30;;
35606;SDS011;21729;58.392;15.656;2023-03-14T10:47:02;0.50;;;0.30;;
35606;SDS011;21729;58.392;15.656;2023-03-14T10:49:32;0.50;;;0.30;;
35606;SDS011;21729;58.392;15.656;2023-03-14T10:52:02;0.30;;;0.30;;
35606;SDS011;21729;58.392;15.656;2023-03-14T10:54:39;0.82;;;0.47;;
35606;SDS011;21729;58.392;15.656;2023-03-14T10:57:10;0.70;;;0.40;;
35606;SDS011;21729;58.392;15.656;2023-03-14T10:59:38;0.70;;;0.40;;
35606;SDS011;21729;58.392;15.656;2023-03-14T11:02:13;0.55;;;0.40;;
35606;SDS011;21729;58.392;15.656;2023-03-14T11:04:57;1.25;;;0.40;;
35606;SDS011;21729;58.392;15.656;2023-03-14T11:07:36;0.30;;;0.30;;
35606;SDS011;21729;58.392;15.656;2023-03-14T11:10:08;1.50;;;0.47;;
35606;SDS011;21729;58.392;15.656;2023-03-14T11:12:46;0.40;;;0.40;;
35606;SDS011;21729;58.392;15.656;2023-03-14T11:15:27;0.20;;;0.20;;
35606;SDS011;21729;58.392;15.656;2023-03-14T11:18:13;1.10;;;0.30;;
35606;SDS011;21729;58.392;15.656;2023-03-14T11:21:05;0.52;;;0.40;;
35606;SDS011;21729;58.392;15.656;2023-03-14T11:23:40;0.77;;;0.25;;
35606;SDS011;21729;58.392;15.656;2023-03-14T11:26:17;1.60;;;0.40;;
35606;SDS011;21729;58.392;15.656;2023-03-14T11:28:53;0.52;;;0.20;;
35606;SDS011;21729;58.392;15.656;2023-03-14T11:31:26;0.40;;;0.22;;
35606;SDS011;21729;58.392;15.656;2023-03-14T11:33:56;0.77;;;0.20;;
35606;SDS011;21729;58.392;15.656;2023-03-14T11:36:29;0.90;;;0.20;;
35606;SDS011;21729;58.392;15.656;2023-03-14T11:38:59;0.30;;;0.30;;
35606;SDS011;21729;58.392;15.656;2023-03-14T11:41:28;0.80;;;0.38;;
35606;SDS011;21729;58.392;15.656;2023-03-14T11:44:01;0.40;;;0.30;;
35606;SDS011;21729;58.392;15.656;2023-03-14T11:46:31;0.93;;;0.30;;
35606;SDS011;21729;58.392;15.656;2023-03-14T11:49:03;0.93;;;0.40;;
35606;SDS011;21729;58.392;15.656;2023-03-14T11:51:35;0.30;;;0.30;;
35606;SDS011;21729;58.392;15.656;2023-03-14T11:54:07;0.60;;;0.32;;
35606;SDS011;21729;58.392;15.656;2023-03-14T11:56:42;0.75;;;0.40;;
35606;SDS011;21729;58.392;15.656;2023-03-14T11:59:16;1.37;;;0.40;;
35606;SDS011;21729;58.392;15.656;2023-03-14T12:01:52;0.43;;;0.40;;
35606;SDS011;21729;58.392;15.656;2023-03-14T12:04:24;0.50;;;0.30;;
35606;SDS011;21729;58.392;15.656;2023-03-14T12:07:14;0.77;;;0.45;;
35606;SDS011;21729;58.392;15.656;2023-03-14T12:09:45;1.15;;;0.40;;
35606;SDS011;21729;58.392;15.656;2023-03-14T12:12:16;0.50;;;0.50;;
35606;SDS011;21729;58.392;15.656;2023-03-14T12:14:51;0.85;;;0.57;;
35606;SDS011;21729;58.392;15.656;2023-03-14T12:17:21;0.50;;;0.40;;
35606;SDS011;21729;58.392;15.656;2023-03-14T12:19:59;1.30;;;0.40;;
35606;SDS011;21729;58.392;15.656;2023-03-14T12:22:32;0.55;;;0.40;;
35606;SDS011;21729;58.392;15.656;2023-03-14T12:25:05;0.40;;;0.40;;
35606;SDS011;21729;58.392;15.656;2023-03-14T12:27:42;0.70;;;0.40;;
35606;SDS011;21729;58.392;15.656;2023-03-14T12:30:22;0.30;;;0.30;;
35606;SDS011;21729;58.392;15.656;2023-03-14T12:35:48;0.55;;;0.32;;
35606;SDS011;21729;58.392;15.656;2023-03-14T12:38:18;0.40;;;0.40;;
35606;SDS011;21729;58.392;15.656;2023-03-14T12:40:54;0.40;;;0.40;;
35606;SDS011;21729;58.392;15.656;2023-03-14T12:43:25;0.80;;;0.50;;
35606;SDS011;21729;58.392;15.656;2023-03-14T12:46:07;0.30;;;0.30;;
35606;SDS011;21729;58.392;15.656;2023-03-14T12:48:40;0.20;;;0.20;;
35606;SDS011;21729;58.392;15.656;2023-03-14T12:51:12;0.40;;;0.40;;
35606;SDS011;21729;58.392;15.656;2023-03-14T12:56:42;0.30;;;0.30;;
35606;SDS011;21729;58.392;15.656;2023-03-14T12:59:30;0.43;;;0.40;;
35606;SDS011;21729;58.392;15.656;2023-03-14T13:02:00;0.55;;;0.40;;
35606;SDS011;21729;58.392;15.656;2023-03-14T13:04:31;0.43;;;0.43;;
35606;SDS011;21729;58.392;15.656;2023-03-14T13:07:00;0.80;;;0.50;;
35606;SDS011;21729;58.392;15.656;2023-03-14T13:09:48;0.68;;;0.50;;
35606;SDS011;21729;58.392;15.656;2023-03-14T13:12:36;0.40;;;0.40;;
35606;SDS011;21729;58.392;15.656;2023-03-14T13:15:13;1.10;;;0.50;;
35606;SDS011;21729;58.392;15.656;2023-03-14T13:17:45;1.10;;;0.52;;
35606;SDS011;21729;58.392;15.656;2023-03-14T13:20:15;3.22;;;0.80;;
35606;SDS011;21729;58.392;15.656;2023-03-14T13:22:48;0.65;;;0.50;;
35606;SDS011;21729;58.392;15.656;2023-03-14T13:25:17;1.20;;;0.50;;
35606;SDS011;21729;58.392;15.656;2023-03-14T13:27:46;0.85;;;0.60;;
35606;SDS011;21729;58.392;15.656;2023-03-14T13:30:17;0.63;;;0.60;;
35606;SDS011;21729;58.392;15.656;2023-03-14T13:32:47;0.60;;;0.60;;
35606;SDS011;21729;58.392;15.656;2023-03-14T13:35:16;0.70;;;0.60;;
35606;SDS011;21729;58.392;15.656;2023-03-14T13:37:45;0.70;;;0.60;;
35606;SDS011;21729;58.392;15.656;2023-03-14T13:40:28;0.50;;;0.50;;
35606;SDS011;21729;58.392;15.656;2023-03-14T13:43:04;0.60;;;0.60;;
35606;SDS011;21729;58.392;15.656;2023-03-14T13:45:45;0.60;;;0.60;;
35606;SDS011;21729;58.392;15.656;2023-03-14T13:48:18;0.60;;;0.60;;
35606;SDS011;21729;58.392;15.656;2023-03-14T13:50:48;0.70;;;0.70;;
35606;SDS011;21729;58.392;15.656;2023-03-14T13:53:18;0.60;;;0.60;;
35606;SDS011;21729;58.392;15.656;2023-03-14T13:55:46;0.98;;;0.70;;
35606;SDS011;21729;58.392;15.656;2023-03-14T13:58:19;1.70;;;0.90;;
35606;SDS011;21729;58.392;15.656;2023-03-14T14:00:56;1.40;;;0.90;;
35606;SDS011;21729;58.392;15.656;2023-03-14T14:03:30;1.80;;;1.15;;
35606;SDS011;21729;58.392;15.656;2023-03-14T14:05:59;1.10;;;1.00;;
35606;SDS011;21729;58.392;15.656;2023-03-14T14:08:26;1.30;;;0.90;;
35606;SDS011;21729;58.392;15.656;2023-03-14T14:10:57;1.05;;;0.98;;
35606;SDS011;21729;58.392;15.656;2023-03-14T14:13:27;0.95;;;0.88;;
35606;SDS011;21729;58.392;15.656;2023-03-14T14:15:59;0.80;;;0.80;;
35606;SDS011;21729;58.392;15.656;2023-03-14T14:18:29;1.15;;;0.80;;
35606;SDS011;21729;58.392;15.656;2023-03-14T14:20:58;1.30;;;0.88;;
35606;SDS011;21729;58.392;15.656;2023-03-14T14:23:26;0.80;;;0.80;;
35606;SDS011;21729;58.392;15.656;2023-03-14T14:25:58;0.80;;;0.63;;
35606;SDS011;21729;58.392;15.656;2023-03-14T14:28:26;0.93;;;0.80;;
35606;SDS011;21729;58.392;15.656;2023-03-14T14:31:06;1.10;;;1.00;;
35606;SDS011;21729;58.392;15.656;2023-03-14T14:33:45;1.13;;;0.90;;
35606;SDS011;21729;58.392;15.656;2023-03-14T14:36:19;1.35;;;1.00;;
35606;SDS011;21729;58.392;15.656;2023-03-14T14:38:49;1.00;;;0.90;;
35606;SDS011;21729;58.392;15.656;2023-03-14T14:41:19;1.47;;;1.10;;
35606;SDS011;21729;58.392;15.656;2023-03-14T14:43:46;1.13;;;1.00;;
35606;SDS011;21729;58.392;15.656;2023-03-14T14:46:16;1.13;;;1.02;;
35606;SDS011;21729;58.392;15.656;2023-03-14T14:48:45;1.98;;;1.00;;
35606;SDS011;21729;58.392;15.656;2023-03-14T14:51:22;1.13;;;1.00;;
35606;SDS011;21729;58.392;15.656;2023-03-14T14:53:59;0.93;;;0.93;;